sensor_id;sensor_type;location;lat;lon;timestamp;temperature;humidity
65040;HTU21D;51606;45.000;38.612;2022-07-23T04:59:55;24.82;63.69
65040;HTU21D;51606;45.000;38.612;2022-07-23T05:02:22;24.75;63.50
65040;HTU21D;51606;45.000;38.612;2022-07-23T05:04:48;24.65;63.50
65040;HTU21D;51606;45.000;38.612;2022-07-23T05:07:15;24.54;63.51
65040;HTU21D;51606;45.000;38.612;2022-07-23T05:09:42;24.40;63.61
65040;HTU21D;51606;45.000;38.612;2022-07-23T05:12:08;0.00;63.71
65040;HTU21D;51606;45.000;38.612;2022-07-23T05:14:35;24.11;63.87
65040;HTU21D;51606;45.000;38.612;2022-07-23T05:17:02;25.71;61.72
65040;HTU21D;51606;45.000;38.612;2022-07-23T05:19:28;27.36;59.09
65040;HTU21D;51606;45.000;38.612;2022-07-23T05:21:54;28.39;57.78
65040;HTU21D;51606;45.000;38.612;2022-07-23T05:24:21;29.52;56.48
65040;HTU21D;51606;45.000;38.612;2022-07-23T05:26:48;29.36;57.05
65040;HTU21D;51606;45.000;38.612;2022-07-23T05:29:15;29.24;57.92
65040;HTU21D;51606;45.000;38.612;2022-07-23T05:31:42;30.62;56.37
65040;HTU21D;51606;45.000;38.612;2022-07-23T05:34:08;32.19;54.59
65040;HTU21D;51606;45.000;38.612;2022-07-23T05:36:36;33.43;53.27
65040;HTU21D;51606;45.000;38.612;2022-07-23T05:39:04;33.29;53.96
65040;HTU21D;51606;45.000;38.612;2022-07-23T05:41:33;32.14;56.06
65040;HTU21D;51606;45.000;38.612;2022-07-23T05:44:01;30.95;58.09
65040;HTU21D;51606;45.000;38.612;2022-07-23T05:46:29;29.86;59.87
65040;HTU21D;51606;45.000;38.612;2022-07-23T05:49:00;28.93;61.36
65040;HTU21D;51606;45.000;38.612;2022-07-23T05:51:54;29.72;59.89
65040;HTU21D;51606;45.000;38.612;2022-07-23T05:54:34;31.53;56.56
65040;HTU21D;51606;45.000;38.612;2022-07-23T05:57:02;33.12;54.31
65040;HTU21D;51606;45.000;38.612;2022-07-23T05:59:29;34.34;52.91
65040;HTU21D;51606;45.000;38.612;2022-07-23T06:01:56;35.40;51.92
65040;HTU21D;51606;45.000;38.612;2022-07-23T06:04:22;36.44;50.97
65040;HTU21D;51606;45.000;38.612;2022-07-23T06:07:06;37.26;50.39
65040;HTU21D;51606;45.000;38.612;2022-07-23T06:09:32;37.91;49.82
65040;HTU21D;51606;45.000;38.612;2022-07-23T06:11:59;38.50;49.27
65040;HTU21D;51606;45.000;38.612;2022-07-23T06:14:26;38.94;48.89
65040;HTU21D;51606;45.000;38.612;2022-07-23T06:16:55;39.30;48.50
65040;HTU21D;51606;45.000;38.612;2022-07-23T06:19:23;39.57;48.24
65040;HTU21D;51606;45.000;38.612;2022-07-23T06:21:50;39.80;48.05
65040;HTU21D;51606;45.000;38.612;2022-07-23T06:24:17;39.92;47.86
65040;HTU21D;51606;45.000;38.612;2022-07-23T06:26:43;40.26;47.33
65040;HTU21D;51606;45.000;38.612;2022-07-23T06:29:10;40.50;46.99
65040;HTU21D;51606;45.000;38.612;2022-07-23T06:31:37;40.67;46.70
65040;HTU21D;51606;45.000;38.612;2022-07-23T06:34:03;39.88;47.63
65040;HTU21D;51606;45.000;38.612;2022-07-23T06:36:29;39.17;48.67
65040;HTU21D;51606;45.000;38.612;2022-07-23T09:17:38;32.12;52.08
65040;HTU21D;51606;45.000;38.612;2022-07-23T09:20:13;31.97;52.29
65040;HTU21D;51606;45.000;38.612;2022-07-23T09:22:48;31.92;52.27
65040;HTU21D;51606;45.000;38.612;2022-07-23T09:25:17;31.82;52.30
65040;HTU21D;51606;45.000;38.612;2022-07-23T09:27:53;31.67;52.39
65040;HTU21D;51606;45.000;38.612;2022-07-23T09:30:22;31.54;52.50
65040;HTU21D;51606;45.000;38.612;2022-07-23T09:35:53;0.00;52.48
65040;HTU21D;51606;45.000;38.612;2022-07-23T09:38:22;31.34;52.48
65040;HTU21D;51606;45.000;38.612;2022-07-23T09:41:11;31.30;52.39
65040;HTU21D;51606;45.000;38.612;2022-07-23T09:43:40;31.24;52.46
65040;HTU21D;51606;45.000;38.612;2022-07-23T09:46:20;31.24;52.36
65040;HTU21D;51606;45.000;38.612;2022-07-23T09:48:47;31.30;52.20
65040;HTU21D;51606;45.000;38.612;2022-07-23T09:51:14;31.33;52.11
65040;HTU21D;51606;45.000;38.612;2022-07-23T09:53:53;31.31;52.11
65040;HTU21D;51606;45.000;38.612;2022-07-23T09:56:20;31.31;52.05
65040;HTU21D;51606;45.000;38.612;2022-07-23T09:58:50;31.11;52.30
65040;HTU21D;51606;45.000;38.612;2022-07-23T10:01:29;30.77;52.76
65040;HTU21D;51606;45.000;38.612;2022-07-23T10:03:57;30.61;52.98
65040;HTU21D;51606;45.000;38.612;2022-07-23T10:06:45;30.61;52.89
65040;HTU21D;51606;45.000;38.612;2022-07-23T10:09:35;30.66;52.71
65040;HTU21D;51606;45.000;38.612;2022-07-23T10:12:41;30.57;52.67
65040;HTU21D;51606;45.000;38.612;2022-07-23T10:15:24;30.41;52.83
65040;HTU21D;51606;45.000;38.612;2022-07-23T10:17:52;30.27;52.96
65040;HTU21D;51606;45.000;38.612;2022-07-23T10:20:18;30.17;53.02
65040;HTU21D;51606;45.000;38.612;2022-07-23T10:22:56;29.96;53.23
65040;HTU21D;51606;45.000;38.612;2022-07-23T10:25:28;29.76;53.45
65040;HTU21D;51606;45.000;38.612;2022-07-23T10:31:41;29.74;53.18
65040;HTU21D;51606;45.000;38.612;2022-07-23T10:37:14;29.70;52.98
65040;HTU21D;51606;45.000;38.612;2022-07-23T10:40:09;29.63;52.97
65040;HTU21D;51606;45.000;38.612;2022-07-23T10:42:36;29.59;52.95
65040;HTU21D;51606;45.000;38.612;2022-07-23T10:45:23;29.53;52.95
65040;HTU21D;51606;45.000;38.612;2022-07-23T10:47:50;29.51;52.93
65040;HTU21D;51606;45.000;38.612;2022-07-23T10:50:24;29.56;52.80
65040;HTU21D;51606;45.000;38.612;2022-07-23T10:58:02;29.53;52.68
65040;HTU21D;51606;45.000;38.612;2022-07-23T11:00:33;29.49;52.70
65040;HTU21D;51606;45.000;38.612;2022-07-23T11:03:01;29.45;52.74
65040;HTU21D;51606;45.000;38.612;2022-07-23T11:05:41;29.45;52.72
65040;HTU21D;51606;45.000;38.612;2022-07-23T11:08:18;29.49;52.62
65040;HTU21D;51606;45.000;38.612;2022-07-23T11:10:48;29.54;52.50
65040;HTU21D;51606;45.000;38.612;2022-07-23T11:24:00;29.81;52.12
65040;HTU21D;51606;45.000;38.612;2022-07-23T11:32:19;29.81;52.17
65040;HTU21D;51606;45.000;38.612;2022-07-23T11:34:48;29.90;52.08
65040;HTU21D;51606;45.000;38.612;2022-07-23T11:37:39;29.92;52.04
65040;HTU21D;51606;45.000;38.612;2022-07-23T11:40:09;29.98;51.99
65040;HTU21D;51606;45.000;38.612;2022-07-23T11:42:50;30.03;51.89
65040;HTU21D;51606;45.000;38.612;2022-07-23T11:45:17;30.00;51.93
65040;HTU21D;51606;45.000;38.612;2022-07-23T11:47:44;29.94;52.04
65040;HTU21D;51606;45.000;38.612;2022-07-23T11:50:10;29.88;52.12
65040;HTU21D;51606;45.000;38.612;2022-07-23T11:52:38;29.82;52.20
65040;HTU21D;51606;45.000;38.612;2022-07-23T11:55:10;29.73;52.30
65040;HTU21D;51606;45.000;38.612;2022-07-23T11:57:40;29.65;52.36
65040;HTU21D;51606;45.000;38.612;2022-07-23T12:00:28;29.61;52.38
65040;HTU21D;51606;45.000;38.612;2022-07-23T12:02:59;29.67;52.23
65040;HTU21D;51606;45.000;38.612;2022-07-23T12:05:30;29.65;52.18
65040;HTU21D;51606;45.000;38.612;2022-07-23T12:07:57;29.65;52.16
65040;HTU21D;51606;45.000;38.612;2022-07-23T12:10:29;29.71;52.05
65040;HTU21D;51606;45.000;38.612;2022-07-23T12:13:01;29.67;52.07
65040;HTU21D;51606;45.000;38.612;2022-07-23T12:15:34;29.62;52.14
65040;HTU21D;51606;45.000;38.612;2022-07-23T12:18:05;29.56;52.20
65040;HTU21D;51606;45.000;38.612;2022-07-23T12:20:37;29.46;52.29
65040;HTU21D;51606;45.000;38.612;2022-07-23T12:23:06;29.44;52.31
65040;HTU21D;51606;45.000;38.612;2022-07-23T12:25:41;29.42;52.27
65040;HTU21D;51606;45.000;38.612;2022-07-23T12:28:19;29.39;52.22
65040;HTU21D;51606;45.000;38.612;2022-07-23T12:30:54;29.37;52.23
65040;HTU21D;51606;45.000;38.612;2022-07-23T12:33:31;29.33;52.27
65040;HTU21D;51606;45.000;38.612;2022-07-23T12:36:00;29.31;52.28
65040;HTU21D;51606;45.000;38.612;2022-07-23T12:38:35;29.28;52.29
65040;HTU21D;51606;45.000;38.612;2022-07-23T12:41:02;29.17;52.40
65040;HTU21D;51606;45.000;38.612;2022-07-23T12:43:32;29.13;52.45
65040;HTU21D;51606;45.000;38.612;2022-07-23T12:46:09;29.14;52.39
65040;HTU21D;51606;45.000;38.612;2022-07-23T12:48:38;29.15;52.33
65040;HTU21D;51606;45.000;38.612;2022-07-23T12:51:09;29.11;52.30
65040;HTU21D;51606;45.000;38.612;2022-07-23T12:53:44;28.76;52.78
65040;HTU21D;51606;45.000;38.612;2022-07-23T12:56:14;28.64;52.96
65040;HTU21D;51606;45.000;38.612;2022-07-23T12:58:51;28.74;52.72
65040;HTU21D;51606;45.000;38.612;2022-07-23T13:01:28;28.80;52.55
65040;HTU21D;51606;45.000;38.612;2022-07-23T13:04:06;28.80;52.50
65040;HTU21D;51606;45.000;38.612;2022-07-23T13:06:46;28.87;52.36
65040;HTU21D;51606;45.000;38.612;2022-07-23T13:09:17;28.89;52.36
65040;HTU21D;51606;45.000;38.612;2022-07-23T13:11:45;28.88;52.32
65040;HTU21D;51606;45.000;38.612;2022-07-23T13:14:12;28.94;52.22
65040;HTU21D;51606;45.000;38.612;2022-07-23T13:16:40;28.93;52.20
65040;HTU21D;51606;45.000;38.612;2022-07-23T13:19:07;28.94;52.21
65040;HTU21D;51606;45.000;38.612;2022-07-23T13:21:34;28.91;52.24
65040;HTU21D;51606;45.000;38.612;2022-07-23T13:24:00;28.90;52.26
65040;HTU21D;51606;45.000;38.612;2022-07-23T13:26:27;28.83;52.34
65040;HTU21D;51606;45.000;38.612;2022-07-23T13:28:53;28.78;52.41
65040;HTU21D;51606;45.000;38.612;2022-07-23T13:31:20;28.74;52.45
65040;HTU21D;51606;45.000;38.612;2022-07-23T13:33:47;28.72;52.47
65040;HTU21D;51606;45.000;38.612;2022-07-23T13:36:13;28.64;52.51
65040;HTU21D;51606;45.000;38.612;2022-07-23T13:38:40;28.62;52.54
65040;HTU21D;51606;45.000;38.612;2022-07-23T13:41:06;28.60;52.53
65040;HTU21D;51606;45.000;38.612;2022-07-23T13:43:33;28.43;52.70
65040;HTU21D;51606;45.000;38.612;2022-07-23T13:46:00;28.35;52.83
65040;HTU21D;51606;45.000;38.612;2022-07-23T13:48:26;28.30;52.83
65040;HTU21D;51606;45.000;38.612;2022-07-23T13:50:55;28.24;52.87
65040;HTU21D;51606;45.000;38.612;2022-07-23T13:53:23;28.14;52.97
65040;HTU21D;51606;45.000;38.612;2022-07-23T13:55:52;28.03;53.07
65040;HTU21D;51606;45.000;38.612;2022-07-23T13:58:19;27.81;53.35
65040;HTU21D;51606;45.000;38.612;2022-07-23T14:00:48;27.70;53.46
65040;HTU21D;51606;45.000;38.612;2022-07-23T14:03:16;27.60;53.47
65040;HTU21D;51606;45.000;38.612;2022-07-23T14:05:43;27.55;53.48
65040;HTU21D;51606;45.000;38.612;2022-07-23T14:08:10;27.45;53.52
65040;HTU21D;51606;45.000;38.612;2022-07-23T14:10:36;27.40;53.51
65040;HTU21D;51606;45.000;38.612;2022-07-23T14:13:03;27.39;53.46
65040;HTU21D;51606;45.000;38.612;2022-07-23T14:15:31;27.35;53.44
65040;HTU21D;51606;45.000;38.612;2022-07-23T14:17:58;27.26;53.49
65040;HTU21D;51606;45.000;38.612;2022-07-23T14:20:25;27.20;53.52
65040;HTU21D;51606;45.000;38.612;2022-07-23T14:22:52;27.15;53.52
65040;HTU21D;51606;45.000;38.612;2022-07-23T14:25:21;27.12;53.51
65040;HTU21D;51606;45.000;38.612;2022-07-23T14:27:48;27.10;53.49
65040;HTU21D;51606;45.000;38.612;2022-07-23T14:30:14;27.07;53.49
65040;HTU21D;51606;45.000;38.612;2022-07-23T14:32:47;27.02;53.49
65040;HTU21D;51606;45.000;38.612;2022-07-23T14:35:15;26.97;53.52
65040;HTU21D;51606;45.000;38.612;2022-07-23T14:37:42;26.91;53.57
65040;HTU21D;51606;45.000;38.612;2022-07-23T14:40:08;26.86;53.62
65040;HTU21D;51606;45.000;38.612;2022-07-23T14:42:35;26.81;53.65
65040;HTU21D;51606;45.000;38.612;2022-07-23T14:45:02;26.80;53.64
65040;HTU21D;51606;45.000;38.612;2022-07-23T14:47:33;26.83;53.55
65040;HTU21D;51606;45.000;38.612;2022-07-23T14:49:59;26.84;53.47
65040;HTU21D;51606;45.000;38.612;2022-07-23T14:52:25;26.80;53.51
65040;HTU21D;51606;45.000;38.612;2022-07-23T14:54:52;26.70;53.61
65040;HTU21D;51606;45.000;38.612;2022-07-23T14:57:18;26.63;53.68
65040;HTU21D;51606;45.000;38.612;2022-07-23T14:59:45;26.56;53.78
65040;HTU21D;51606;45.000;38.612;2022-07-23T15:02:11;26.49;53.86
65040;HTU21D;51606;45.000;38.612;2022-07-23T15:04:37;26.48;53.86
65040;HTU21D;51606;45.000;38.612;2022-07-23T15:07:05;26.42;53.91
65040;HTU21D;51606;45.000;38.612;2022-07-23T15:09:36;26.33;54.01
65040;HTU21D;51606;45.000;38.612;2022-07-23T15:12:04;26.12;54.30
65040;HTU21D;51606;45.000;38.612;2022-07-23T15:14:37;25.89;54.62
65040;HTU21D;51606;45.000;38.612;2022-07-23T15:17:03;25.73;54.81
65040;HTU21D;51606;45.000;38.612;2022-07-23T15:19:30;25.62;54.89
65040;HTU21D;51606;45.000;38.612;2022-07-23T15:21:56;25.56;54.92
65040;HTU21D;51606;45.000;38.612;2022-07-23T15:24:26;25.46;54.98
65040;HTU21D;51606;45.000;38.612;2022-07-23T15:26:52;25.36;55.05
65040;HTU21D;51606;45.000;38.612;2022-07-23T15:29:19;25.30;55.10
65040;HTU21D;51606;45.000;38.612;2022-07-23T15:31:45;25.22;55.13
65040;HTU21D;51606;45.000;38.612;2022-07-23T15:34:12;25.10;55.26
65040;HTU21D;51606;45.000;38.612;2022-07-23T15:36:39;25.03;55.33
65040;HTU21D;51606;45.000;38.612;2022-07-23T15:39:05;24.90;55.43
65040;HTU21D;51606;45.000;38.612;2022-07-23T15:41:32;24.75;55.61
65040;HTU21D;51606;45.000;38.612;2022-07-23T15:43:58;24.66;55.71
65040;HTU21D;51606;45.000;38.612;2022-07-23T15:46:25;24.54;55.81
65040;HTU21D;51606;45.000;38.612;2022-07-23T15:48:51;24.41;55.95
65040;HTU21D;51606;45.000;38.612;2022-07-23T15:51:18;24.28;56.05
65040;HTU21D;51606;45.000;38.612;2022-07-23T15:53:44;24.18;56.12
65040;HTU21D;51606;45.000;38.612;2022-07-23T15:56:11;24.10;56.19
65040;HTU21D;51606;45.000;38.612;2022-07-23T15:58:38;23.98;56.26
65040;HTU21D;51606;45.000;38.612;2022-07-23T16:01:04;23.87;56.36
65040;HTU21D;51606;45.000;38.612;2022-07-23T16:03:34;23.76;56.46
65040;HTU21D;51606;45.000;38.612;2022-07-23T16:06:06;23.66;56.55
65040;HTU21D;51606;45.000;38.612;2022-07-23T16:08:33;23.56;56.63
65040;HTU21D;51606;45.000;38.612;2022-07-23T16:11:00;23.43;56.74
65040;HTU21D;51606;45.000;38.612;2022-07-23T16:13:26;23.34;56.84
65040;HTU21D;51606;45.000;38.612;2022-07-23T16:15:53;23.23;56.92
65040;HTU21D;51606;45.000;38.612;2022-07-23T16:18:21;23.14;57.00
65040;HTU21D;51606;45.000;38.612;2022-07-23T16:20:51;23.05;57.10
65040;HTU21D;51606;45.000;38.612;2022-07-23T16:23:18;22.92;57.23
65040;HTU21D;51606;45.000;38.612;2022-07-23T16:25:46;22.81;57.34
65040;HTU21D;51606;45.000;38.612;2022-07-23T16:28:15;22.70;57.47
65040;HTU21D;51606;45.000;38.612;2022-07-23T16:31:02;22.60;57.54
65040;HTU21D;51606;45.000;38.612;2022-07-23T16:33:28;22.44;57.67
65040;HTU21D;51606;45.000;38.612;2022-07-23T16:35:55;22.35;57.79
65040;HTU21D;51606;45.000;38.612;2022-07-23T16:38:22;22.24;57.90
65040;HTU21D;51606;45.000;38.612;2022-07-23T16:40:49;22.12;58.03
65040;HTU21D;51606;45.000;38.612;2022-07-23T16:43:15;22.02;58.13
65040;HTU21D;51606;45.000;38.612;2022-07-23T16:45:47;21.91;58.25
65040;HTU21D;51606;45.000;38.612;2022-07-23T16:48:14;21.79;58.35
65040;HTU21D;51606;45.000;38.612;2022-07-23T16:50:40;21.68;58.45
65040;HTU21D;51606;45.000;38.612;2022-07-23T16:53:07;21.59;58.54
65040;HTU21D;51606;45.000;38.612;2022-07-23T16:55:33;21.50;58.64
65040;HTU21D;51606;45.000;38.612;2022-07-23T16:57:59;21.39;58.74
65040;HTU21D;51606;45.000;38.612;2022-07-23T17:00:26;21.29;58.83
65040;HTU21D;51606;45.000;38.612;2022-07-23T17:02:52;21.17;58.95
65040;HTU21D;51606;45.000;38.612;2022-07-23T17:05:19;21.08;59.04
65040;HTU21D;51606;45.000;38.612;2022-07-23T17:07:50;21.01;59.12
65040;HTU21D;51606;45.000;38.612;2022-07-23T17:10:20;20.92;59.13
65040;HTU21D;51606;45.000;38.612;2022-07-23T17:12:48;20.83;59.25
65040;HTU21D;51606;45.000;38.612;2022-07-23T17:15:20;20.75;59.35
65040;HTU21D;51606;45.000;38.612;2022-07-23T17:17:46;20.65;59.38
65040;HTU21D;51606;45.000;38.612;2022-07-23T17:22:59;20.46;59.58
65040;HTU21D;51606;45.000;38.612;2022-07-23T17:25:25;20.37;59.65
65040;HTU21D;51606;45.000;38.612;2022-07-23T17:27:52;20.30;59.72
65040;HTU21D;51606;45.000;38.612;2022-07-23T17:30:19;20.21;59.80
65040;HTU21D;51606;45.000;38.612;2022-07-23T17:32:45;20.16;59.88
65040;HTU21D;51606;45.000;38.612;2022-07-23T17:35:11;20.05;59.96
65040;HTU21D;51606;45.000;38.612;2022-07-23T17:37:38;19.99;60.03
65040;HTU21D;51606;45.000;38.612;2022-07-23T17:40:05;19.91;60.12
65040;HTU21D;51606;45.000;38.612;2022-07-23T17:42:32;19.86;60.20
65040;HTU21D;51606;45.000;38.612;2022-07-23T17:44:59;19.79;60.29
65040;HTU21D;51606;45.000;38.612;2022-07-23T17:47:25;19.71;60.38
65040;HTU21D;51606;45.000;38.612;2022-07-23T17:49:52;19.63;60.44
65040;HTU21D;51606;45.000;38.612;2022-07-23T17:52:18;19.58;60.51
65040;HTU21D;51606;45.000;38.612;2022-07-23T17:54:49;19.53;60.60
65040;HTU21D;51606;45.000;38.612;2022-07-23T18:00:00;19.45;60.51
65040;HTU21D;51606;45.000;38.612;2022-07-23T18:02:47;19.31;60.70
65040;HTU21D;51606;45.000;38.612;2022-07-23T18:05:14;19.25;60.84
65040;HTU21D;51606;45.000;38.612;2022-07-23T18:07:40;19.17;60.96
65040;HTU21D;51606;45.000;38.612;2022-07-23T18:10:07;19.11;61.06
65040;HTU21D;51606;45.000;38.612;2022-07-23T18:12:34;19.06;61.15
65040;HTU21D;51606;45.000;38.612;2022-07-23T18:15:01;18.98;61.25
65040;HTU21D;51606;45.000;38.612;2022-07-23T18:17:28;18.94;61.36
65040;HTU21D;51606;45.000;38.612;2022-07-23T18:19:55;18.88;61.44
65040;HTU21D;51606;45.000;38.612;2022-07-23T18:22:21;18.83;61.52
65040;HTU21D;51606;45.000;38.612;2022-07-23T18:24:48;18.78;61.60
65040;HTU21D;51606;45.000;38.612;2022-07-23T18:27:14;18.72;61.67
65040;HTU21D;51606;45.000;38.612;2022-07-23T18:29:40;18.68;61.74
65040;HTU21D;51606;45.000;38.612;2022-07-23T18:32:07;18.63;61.84
65040;HTU21D;51606;45.000;38.612;2022-07-23T18:34:33;18.57;61.94
65040;HTU21D;51606;45.000;38.612;2022-07-23T18:37:00;18.53;62.02
65040;HTU21D;51606;45.000;38.612;2022-07-23T18:39:26;18.47;62.10
65040;HTU21D;51606;45.000;38.612;2022-07-23T18:41:54;18.41;62.20
65040;HTU21D;51606;45.000;38.612;2022-07-23T18:44:20;18.38;62.25
65040;HTU21D;51606;45.000;38.612;2022-07-23T18:46:46;18.33;62.32
65040;HTU21D;51606;45.000;38.612;2022-07-23T18:49:13;18.28;62.40
65040;HTU21D;51606;45.000;38.612;2022-07-23T18:51:39;18.24;62.47
65040;HTU21D;51606;45.000;38.612;2022-07-23T18:54:05;18.21;62.50
65040;HTU21D;51606;45.000;38.612;2022-07-23T18:56:36;18.17;62.54
65040;HTU21D;51606;45.000;38.612;2022-07-23T18:59:02;18.14;62.60
65040;HTU21D;51606;45.000;38.612;2022-07-23T19:01:29;18.13;62.62
65040;HTU21D;51606;45.000;38.612;2022-07-23T19:03:59;18.10;62.67
65040;HTU21D;51606;45.000;38.612;2022-07-23T19:06:26;18.08;62.67
65040;HTU21D;51606;45.000;38.612;2022-07-23T19:08:53;18.07;62.72
65040;HTU21D;51606;45.000;38.612;2022-07-23T19:11:19;18.05;62.73
65040;HTU21D;51606;45.000;38.612;2022-07-23T19:13:46;18.05;62.73
65040;HTU21D;51606;45.000;38.612;2022-07-23T19:16:12;18.05;62.75
65040;HTU21D;51606;45.000;38.612;2022-07-23T19:18:40;18.07;62.74
65040;HTU21D;51606;45.000;38.612;2022-07-23T19:21:06;18.05;62.77
65040;HTU21D;51606;45.000;38.612;2022-07-23T19:23:35;18.04;62.82
65040;HTU21D;51606;45.000;38.612;2022-07-23T19:26:02;18.03;62.84
65040;HTU21D;51606;45.000;38.612;2022-07-23T19:28:29;18.05;62.82
65040;HTU21D;51606;45.000;38.612;2022-07-23T19:30:55;18.08;62.77
65040;HTU21D;51606;45.000;38.612;2022-07-23T19:33:22;18.13;62.71
65040;HTU21D;51606;45.000;38.612;2022-07-23T19:35:48;18.20;62.63
65040;HTU21D;51606;45.000;38.612;2022-07-23T19:38:16;18.24;62.57
65040;HTU21D;51606;45.000;38.612;2022-07-23T19:40:42;18.29;62.50
65040;HTU21D;51606;45.000;38.612;2022-07-23T19:43:09;18.34;62.48
65040;HTU21D;51606;45.000;38.612;2022-07-23T19:45:37;18.40;62.44
65040;HTU21D;51606;45.000;38.612;2022-07-23T19:48:04;18.46;62.35
65040;HTU21D;51606;45.000;38.612;2022-07-23T19:50:31;18.52;62.31
65040;HTU21D;51606;45.000;38.612;2022-07-23T19:52:58;18.54;62.31
65040;HTU21D;51606;45.000;38.612;2022-07-23T19:55:24;18.58;62.31
65040;HTU21D;51606;45.000;38.612;2022-07-23T19:57:51;18.58;62.32
65040;HTU21D;51606;45.000;38.612;2022-07-23T20:00:18;18.58;62.37
65040;HTU21D;51606;45.000;38.612;2022-07-23T20:02:44;18.61;62.41
65040;HTU21D;51606;45.000;38.612;2022-07-23T20:05:11;18.62;62.45
65040;HTU21D;51606;45.000;38.612;2022-07-23T20:07:38;18.58;62.52
65040;HTU21D;51606;45.000;38.612;2022-07-23T20:10:09;18.57;62.63
65040;HTU21D;51606;45.000;38.612;2022-07-23T20:12:37;18.52;62.71
65040;HTU21D;51606;45.000;38.612;2022-07-23T20:15:05;18.50;62.80
65040;HTU21D;51606;45.000;38.612;2022-07-23T20:17:32;18.44;62.89
65040;HTU21D;51606;45.000;38.612;2022-07-23T20:19:58;18.41;62.97
65040;HTU21D;51606;45.000;38.612;2022-07-23T20:22:25;18.37;63.05
65040;HTU21D;51606;45.000;38.612;2022-07-23T20:24:52;18.35;63.10
65040;HTU21D;51606;45.000;38.612;2022-07-23T20:27:18;18.34;63.12
65040;HTU21D;51606;45.000;38.612;2022-07-23T20:29:45;18.33;63.19
65040;HTU21D;51606;45.000;38.612;2022-07-23T20:32:11;18.28;63.24
65040;HTU21D;51606;45.000;38.612;2022-07-23T20:34:38;18.24;63.31
65040;HTU21D;51606;45.000;38.612;2022-07-23T20:37:10;18.20;63.44
